Latest Weather Observations for Christmas Island

IDW60801

Issued at 3:35 pm WST Wednesday 23 July 2014 (issued every 30 minutes, with the page automatically refreshed every 10 minutes)

About weather observations | Map of weather stations | Latest weather observations for WA | Other Formats
Station Details ID: 200790 Name: CHRISTMAS ISLAND AERO Lat: -10.45 Lon: 105.69 Height: 261.0 m
Data from the previous 72 hours. | See also: Recent months at Christmas Island
Date/Time
WST
Temp
°C
App
Temp
°C
Dew
Point
Rel
Hum
%
Delta-T
°C
Wind Press
QNH
hPa
Press
MSL
hPa
Rain
since 9 am
mm
Dir
 
Spd
km/h
Gust
km/h
Spd
kts
Gust
kts
23/03:00pm 23.0 22.6 21.6 92 0.9 SE 26 33 14 18 1014.6 - 0.2
23/02:56pm 23.1 23.3 22.1 94 0.7 SE 24 35 13 19 1014.7 - 0.2
23/02:32pm 22.8 22.2 21.3 91 1.0 SE 26 44 14 24 1014.9 - 0.2
23/02:24pm 23.9 22.7 20.9 83 2.0 SE 28 46 15 25 1014.8 - 0.0
23/02:00pm 23.9 22.3 20.7 82 2.1 SE 30 46 16 25 1015.1 - 0.0
23/01:47pm 24.1 22.5 20.8 82 2.2 SE 30 44 16 24 1015.1 - 0.0
23/01:23pm 24.6 22.5 20.5 78 2.7 SE 32 44 17 24 1015.6 - 0.0
23/01:00pm 24.5 22.8 20.6 79 2.6 SE 30 44 16 24 1015.8 1014.4 0.0
23/12:00pm 24.7 24.0 21.1 80 2.4 SE 26 37 14 20 1016.4 - 0.0
23/11:58am 24.6 23.9 21.1 81 2.3 SE 26 37 14 20 1016.5 - 0.0
23/11:56am 24.7 24.0 21.1 80 2.4 SE 26 37 14 20 1016.5 - 0.0
23/11:48am 24.7 23.5 20.8 79 2.6 SE 28 41 15 22 1016.6 - 0.0
23/11:35am 24.1 22.6 20.9 82 2.1 SE 30 46 16 25 1016.5 - 0.0
23/11:00am 24.6 23.9 21.0 80 2.4 SE 26 41 14 22 1016.8 - 0.0
23/10:47am 24.4 22.5 20.1 77 2.8 SE 30 48 16 26 1016.9 - 0.0
23/10:00am 24.4 22.5 20.1 77 2.8 SE 30 43 16 23 1016.9 1015.5 3.0
23/09:39am 24.1 22.4 19.8 77 2.8 SE 28 46 15 25 1016.7 - 3.0
23/09:00am 23.5 21.9 20.0 81 2.3 SE 28 39 15 21 1016.2 - 3.0
23/08:35am 23.7 22.0 19.7 78 2.6 SE 28 48 15 26 1015.9 - 3.0
23/08:00am 23.5 22.2 19.8 80 2.4 SE 26 41 14 22 1015.5 - 3.0
23/07:23am 23.3 21.5 20.4 84 1.9 SE 30 44 16 24 1015.1 - 3.0
23/07:11am 23.2 20.8 20.0 82 2.1 SE 32 48 17 26 1015.0 - 3.0
23/07:02am 23.0 20.9 19.8 82 2.1 SE 30 48 16 26 1014.9 - 3.0
23/07:00am 23.0 21.5 20.2 84 1.8 SE 28 41 15 22 1014.9 1013.5 3.0
23/06:47am 23.1 21.5 20.7 86 1.6 SE 30 48 16 26 1014.8 - 3.0
23/06:00am 23.0 21.7 20.7 87 1.5 SE 28 43 15 23 1014.6 - 3.0
23/05:49am 22.6 21.1 20.3 87 1.5 SE 28 41 15 22 - - 3.0
23/05:28am 23.0 21.3 20.6 86 1.6 SE 30 48 16 26 1014.6 - 3.0
23/05:00am 23.1 21.5 20.7 86 1.6 SE 30 46 16 25 1014.5 - 3.0
23/04:43am 22.9 22.1 20.9 88 1.3 SE 26 41 14 22 1014.6 - 3.0
23/04:22am 23.1 21.6 21.0 88 1.4 SE 30 41 16 22 1014.6 - 3.0
23/04:00am 23.0 21.7 20.6 86 1.6 SE 28 43 15 23 1014.6 1013.2 3.0
23/03:59am 23.0 21.7 20.6 86 1.6 SE 28 43 15 23 1014.6 - 3.0
23/03:54am 22.9 21.7 20.8 88 1.4 SE 28 46 15 25 1014.6 - 3.0
23/03:51am 22.8 21.2 20.7 88 1.4 SE 30 46 16 25 1014.7 - 3.0
23/03:14am 22.7 20.8 21.0 90 1.1 SE 32 44 17 24 1014.7 - 3.0
23/03:00am 22.7 21.5 21.6 93 0.7 SE 30 44 16 24 1014.9 - 3.0
23/02:51am 22.8 22.6 21.3 91 1.0 SE 24 35 13 19 1015.0 - 3.0
23/02:47am 22.7 22.6 21.5 93 0.8 SE 24 35 13 19 1015.0 - 3.0
23/02:38am 22.4 21.4 21.2 93 0.8 SE 28 39 15 21 1015.2 - 2.8
23/02:31am 23.0 22.0 21.2 89 1.2 SE 28 43 15 23 1015.3 - 2.4
23/02:28am 23.3 22.1 20.9 86 1.6 SE 28 43 15 23 1015.3 - 2.4
23/02:24am 23.6 22.4 20.9 85 1.8 SE 28 43 15 23 1015.2 - 2.4
23/02:00am 23.6 22.1 20.2 81 2.2 SE 28 48 15 26 1015.5 - 2.4
23/01:59am 23.6 22.1 20.2 81 2.2 SE 28 48 15 26 1015.5 - 2.4
23/01:00am 23.6 22.3 20.7 84 1.9 SE 28 41 15 22 1015.8 1014.4 2.4
23/12:34am 23.6 22.1 20.2 81 2.2 SE 28 46 15 25 1015.8 - 2.4
23/12:01am 23.6 21.7 20.1 81 2.3 SE 30 44 16 24 1015.8 - 2.4
23/12:00am 23.6 21.7 20.1 81 2.3 SE 30 44 16 24 1015.8 - 2.4
 
Date/Time
WST
Temp
°C
App
Temp
°C
Dew
Point
Rel
Hum
%
Delta-T
°C
Wind Press
QNH
hPa
Press
MSL
hPa
Rain
since 9 am
mm
Dir
 
Spd
km/h
Gust
km/h
Spd
kts
Gust
kts
22/11:35pm 23.6 22.5 21.0 85 1.7 SE 28 41 15 22 1015.9 - 2.4
22/11:31pm 23.6 22.1 20.9 85 1.8 SE 30 44 16 24 1015.9 - 2.4
22/11:00pm 23.3 22.7 21.2 88 1.4 SE 26 39 14 21 1016.1 - 2.4
22/10:48pm 23.4 22.3 21.1 87 1.5 SE 28 41 15 22 1016.3 - 2.4
22/10:28pm 23.4 22.3 21.0 86 1.6 SE 28 41 15 22 1016.3 - 2.4
22/10:08pm 23.0 22.0 21.3 90 1.1 SE 28 41 15 22 1016.2 - 2.4
22/10:00pm 22.8 22.7 21.4 92 0.9 SE 24 35 13 19 1016.2 1014.7 2.2
22/09:55pm 22.8 22.8 21.6 93 0.8 SE 24 39 13 21 1016.3 - 2.2
22/09:44pm 23.0 21.3 21.3 90 1.1 SE 32 46 17 25 1016.4 - 1.6
22/09:00pm 23.5 21.7 21.1 86 1.6 SE 32 44 17 24 1015.7 - 1.6
22/08:30pm 22.9 22.6 21.9 94 0.7 SE 26 35 14 19 1015.3 - 1.6
22/08:04pm 22.9 21.5 21.1 89 1.2 SE 30 43 16 23 1014.8 - 1.0
22/08:00pm 23.1 21.8 21.3 90 1.2 SE 30 39 16 21 1014.6 - 1.0
22/07:56pm 23.2 21.5 21.4 90 1.2 SE 32 43 17 23 1014.6 - 1.0
22/07:48pm 23.6 22.6 21.3 87 1.5 SE 28 44 15 24 1014.5 - 0.8
22/07:25pm 23.7 22.3 20.5 82 2.1 SE 28 43 15 23 1014.3 - 0.8
22/07:09pm 23.8 23.1 21.1 85 1.8 SE 26 35 14 19 1014.1 - 0.8
22/07:00pm 23.9 22.7 20.9 83 2.0 SE 28 43 15 23 1014.1 1012.7 0.8
22/06:17pm 23.8 22.2 20.8 83 2.0 SE 30 48 16 26 1013.8 - 0.8
22/06:08pm 23.7 21.3 20.3 81 2.2 SE 33 46 18 25 1013.7 - 0.8
22/06:00pm 23.7 22.4 20.7 83 2.0 SE 28 46 15 25 1013.7 - 0.8
22/05:06pm 23.5 22.4 21.1 86 1.6 SE 28 46 15 25 1013.2 - 0.8
22/05:00pm 23.5 22.5 21.2 87 1.5 SE 28 43 15 23 1013.2 - 0.8
22/04:08pm 23.7 22.8 21.4 87 1.5 SE 28 41 15 22 1013.4 - 0.8
22/04:00pm 23.6 23.0 21.3 87 1.5 SE 26 37 14 20 1013.3 1011.9 0.8
22/03:15pm 23.4 22.6 21.6 90 1.2 SE 28 41 15 22 1013.7 - 0.8
22/03:00pm 23.1 22.8 21.9 93 0.8 SE 26 39 14 21 1013.7 - 0.8
22/02:58pm 23.1 22.8 21.9 93 0.8 SE 26 39 14 21 1013.8 - 0.8
22/02:46pm 22.8 21.8 21.3 91 1.0 SE 28 44 15 24 1014.1 - 0.8
22/02:00pm 23.5 22.6 21.5 88 1.3 SE 28 41 15 22 1014.7 - 0.0
22/01:00pm 23.4 23.6 22.1 92 0.9 SE 24 32 13 17 1015.7 1014.3 0.0
22/12:00pm 23.2 23.1 22.3 95 0.6 SE 26 41 14 22 1016.4 - 0.0
22/11:00am 23.6 23.8 22.7 95 0.6 SE 26 37 14 20 1016.7 - 0.0
22/10:20am 23.1 23.9 22.4 96 0.5 ESE 22 37 12 20 1016.9 - 0.0
22/10:00am 23.2 24.1 22.6 96 0.4 SE 22 35 12 19 1016.9 1015.5 4.6
22/09:56am 23.1 24.3 22.5 96 0.4 SE 20 30 11 16 1016.9 - 4.6
22/09:28am 22.6 23.1 22.0 96 0.4 ESE 22 35 12 19 1016.7 - 4.6
22/09:05am 23.1 23.2 22.5 96 0.4 ESE 26 39 14 21 1016.4 - 4.4
22/09:04am 23.1 23.2 22.5 96 0.4 ESE 26 39 14 21 1016.4 - 4.4
22/09:02am 23.2 23.3 22.6 96 0.4 ESE 26 39 14 21 1016.4 - 4.4
22/09:00am 23.2 23.3 22.6 96 0.4 ESE 26 39 14 21 1016.4 - 4.4
22/08:54am 23.2 24.1 22.6 96 0.4 ESE 22 43 12 23 1016.3 - 4.4
22/08:32am 23.6 24.3 23.0 96 0.4 SE 24 37 13 20 1015.8 - 3.6
22/08:21am 23.5 24.1 22.8 96 0.5 SE 24 33 13 18 1015.8 - 3.6
22/08:05am 23.7 24.7 22.8 95 0.6 SE 22 35 12 19 1015.6 - 3.6
22/08:00am 23.7 24.2 22.7 94 0.7 SE 24 35 13 19 1015.5 - 3.6
22/07:00am 23.7 24.1 22.5 93 0.8 SE 24 35 13 19 1015.0 1013.6 3.6
22/06:00am 23.9 23.9 21.7 87 1.5 SE 24 33 13 18 1014.8 - 3.4
22/05:40am 23.8 23.6 21.2 85 1.7 SE 24 39 13 21 1014.9 - 3.4
22/05:32am 23.6 23.2 21.0 85 1.7 SE 24 33 13 18 1014.9 - 3.4
22/05:00am 23.6 24.0 21.8 90 1.2 SE 22 32 12 17 1014.6 - 3.4
22/04:06am 23.3 23.4 21.8 91 1.0 SE 24 35 13 19 1014.4 - 3.4
22/04:04am 23.3 23.0 21.8 91 1.0 SE 26 35 14 19 1014.4 - 3.4
22/04:00am 23.3 22.9 21.7 91 1.1 SE 26 35 14 19 1014.4 1013.0 3.4
22/03:00am 23.3 23.5 22.0 92 0.9 SE 24 35 13 19 1014.5 - 3.4
22/02:17am 23.3 23.5 22.0 92 0.9 SE 24 37 13 20 1015.1 - 3.0
22/02:13am 23.3 23.1 22.0 92 0.9 SE 26 39 14 21 1015.1 - 2.8
22/02:00am 23.4 23.2 22.1 92 0.9 SE 26 35 14 19 1015.2 - 2.6
22/01:54am 23.4 23.1 21.9 91 1.0 SE 26 37 14 20 1015.3 - 2.6
22/01:27am 23.4 23.6 22.1 92 0.9 SE 24 35 13 19 1015.5 - 2.2
22/01:00am 23.5 23.8 22.2 92 0.9 SE 24 37 13 20 1015.6 1014.2 2.0
22/12:00am 23.9 23.5 22.4 91 1.0 SE 28 43 15 23 1015.5 - 0.6
 
Date/Time
WST
Temp
°C
App
Temp
°C
Dew
Point
Rel
Hum
%
Delta-T
°C
Wind Press
QNH
hPa
Press
MSL
hPa
Rain
since 9 am
mm
Dir
 
Spd
km/h
Gust
km/h
Spd
kts
Gust
kts
21/11:00pm 23.9 22.8 21.8 88 1.4 SE 30 44 16 24 1015.5 - 0.4
21/10:12pm 23.9 23.7 22.7 93 0.8 SE 28 46 15 25 1015.4 - 0.2
21/10:00pm 24.0 23.6 22.4 91 1.1 SE 28 39 15 21 1015.4 1014.0 0.2
21/09:00pm 23.9 22.5 22.0 89 1.3 SE 32 41 17 22 1015.3 - 0.2
21/08:52pm 23.8 22.8 21.9 89 1.3 SE 30 44 16 24 - - 0.2
21/08:23pm 23.7 22.9 22.4 92 0.9 SE 30 48 16 26 1014.5 - 0.2
21/08:00pm 23.6 23.2 22.4 93 0.8 SE 28 41 15 22 1014.2 - 0.2
21/07:00pm 24.2 23.9 22.6 91 1.1 SE 28 46 15 25 1013.3 1011.9 0.0
21/06:58pm 24.2 24.0 22.7 91 1.0 SE 28 46 15 25 1013.3 - 0.0
21/06:00pm 24.4 24.5 22.6 90 1.2 SE 26 43 14 23 1013.1 - 0.0
21/05:00pm 24.3 24.7 22.4 89 1.3 SE 24 33 13 18 1012.9 - 0.0
21/04:00pm 24.3 24.7 22.5 90 1.2 SE 24 39 13 21 1012.7 1011.2 0.0
21/03:00pm 24.6 25.0 22.4 87 1.5 ESE 24 35 13 19 1012.9 - 0.0
21/02:00pm 24.3 25.1 22.4 89 1.3 ESE 22 33 12 18 1013.5 - 0.0
21/01:00pm 24.4 24.3 22.3 88 1.4 ESE 26 39 14 21 1014.1 1012.7 0.0
21/12:00pm 24.7 25.7 22.8 89 1.3 ESE 22 32 12 17 1014.9 - 0.0
21/11:00am 24.3 24.2 22.2 88 1.4 SE 26 37 14 20 1015.5 - 0.0
21/10:00am 24.3 24.4 22.5 90 1.2 ESE 26 39 14 21 1015.6 1014.2 0.8
21/09:00am 24.1 24.0 22.3 90 1.2 ESE 26 41 14 22 1015.1 - 0.8
21/08:00am 23.8 23.7 22.2 91 1.1 ESE 26 48 14 26 1014.4 - 0.8
21/07:00am 23.6 24.1 22.6 94 0.7 SE 24 39 13 21 1013.9 1012.5 0.8
21/06:02am 23.3 24.0 22.3 94 0.7 SE 22 33 12 18 1013.8 - 0.8
21/06:00am 23.3 24.1 22.4 95 0.6 SE 22 33 12 18 1013.8 - 0.8
21/05:45am 23.4 23.7 22.2 93 0.8 ESE 24 39 13 21 1013.9 - 0.8
21/05:00am 23.8 23.6 22.0 90 1.2 ESE 26 37 14 20 1013.8 - 0.0
21/04:00am 23.9 23.6 21.8 88 1.4 SE 26 35 14 19 1013.5 1012.1 0.0
21/03:39am 23.7 23.0 21.8 89 1.3 SE 28 39 15 21 1013.4 - 0.0
21/03:00am 23.9 23.5 22.4 91 1.0 SE 28 52 15 28 1013.4 - 0.0
21/02:00am 23.6 23.4 22.0 91 1.1 SE 26 41 14 22 1014.4 - 0.0
21/01:00am 24.1 24.8 22.2 89 1.3 SE 22 30 12 16 1015.4 1014.0 0.0
21/12:44am 24.1 24.8 22.2 89 1.3 SE 22 30 12 16 1015.6 - 0.0
21/12:32am 23.9 23.9 21.7 87 1.5 SE 24 33 13 18 1015.7 - 0.0
21/12:00am 24.3 24.8 21.9 86 1.6 SE 22 32 12 17 1015.7 - 0.0
 
Date/Time
WST
Temp
°C
App
Temp
°C
Dew
Point
Rel
Hum
%
Delta-T
°C
Wind Press
QNH
hPa
Press
MSL
hPa
Rain
since 9 am
mm
Dir
 
Spd
km/h
Gust
km/h
Spd
kts
Gust
kts
20/11:23pm 24.2 23.9 21.8 86 1.6 SE 26 37 14 20 1015.7 - 0.0
20/11:00pm 24.3 24.0 21.9 86 1.6 SE 26 37 14 20 1015.6 - 0.0
20/10:00pm 24.3 24.4 21.9 86 1.6 SE 24 37 13 20 1015.6 1014.2 0.0
20/09:59pm 24.3 24.4 21.9 86 1.6 SE 24 37 13 20 1015.6 - 0.0
20/09:00pm 24.0 24.4 21.8 87 1.5 SE 22 32 12 17 1015.3 - 0.0
20/08:00pm 24.3 24.3 21.6 85 1.8 SE 24 35 13 19 1014.6 - 0.0
20/07:34pm 24.3 24.6 21.5 84 1.9 SE 22 32 12 17 1014.0 - 0.0
20/07:23pm 24.2 24.0 21.3 84 1.9 SE 24 32 13 17 1013.8 - 0.0
20/07:00pm 24.3 24.5 21.3 83 2.0 SE 22 33 12 18 1013.7 1012.3 0.0
20/06:59pm 24.3 24.5 21.3 83 2.0 SE 22 33 12 18 1013.7 - 0.0
20/06:58pm 24.3 24.5 21.3 83 2.0 SE 22 33 12 18 1013.7 - 0.0
20/06:00pm 24.4 24.8 21.7 85 1.8 SE 22 30 12 16 1013.5 - 0.0
20/05:57pm 24.4 24.8 21.7 85 1.8 SE 22 32 12 17 1013.4 - 0.0
20/05:00pm 23.6 24.9 21.7 89 1.3 SE 17 32 9 17 1013.1 - 0.0

Other Formats:

Comma delimited format used in spreadsheet applications
http://www.bom.gov.au/fwo/IDW60801/IDW60801.96995.axf

JavaScript Object Notation format (JSON) in row-major order
http://www.bom.gov.au/fwo/IDW60801/IDW60801.96995.json